Etusivu
METAR-TAF:

METAR-TAF

Lentoasemat :

Kuningatar Alian kansainvälinen lentoasema

Amman-Queen Alia, Jordania

Leveyspiiri: 31-40N, Pituuspiiri: 035-58E, korkeus merenpinnasta: 721 m

Tämänhetkinen sää

Tämä raportti tehtiin 1 tunti ja 2 minuuttia sitten, kello 01.00 UTC
tyyntä
Lämpötila 21°C
Kosteus 46%
Ilmanpaine 1012 hPa
Näkyvyys: 5000 m
usvaa,

METAR: OJAI 190100Z 00000KT 5000 HZ NSC 21/09 Q1012 NOSIG

Aika: 05:02 (02:02 UTC)

Sääennuste

Tämä raportti tehtiin 3 tuntia ja 16 minuuttia sitten, kello 22.46 UTC
Ennuste voimassa 19. päivästä klo 00 UTC - 20. päivään klo 06 UTC
Tuuli 12 kn lännestä/luoteesta
Näkyvyys: 5000 m
usvaa
Ajoittain
19. päivästä klo 00 UTC - 19. päivään klo 06 UTC
Tuuli 1 kn eri suunnista

TAF: OJAI 182246Z 1900/2006 29012KT 5000 HZ NSC TEMPO 1900/1906 VRB01KT

Säähavainnot ja -ennusteet yli 4000 lentoasemalta (METAR- ja TAF-raportit).

Käytössä olevat sääasemat on merkitty karttaan keltaisilla ja punaisilla pisteillä.

Aseta hiiri pisteen päälle nähdäksesi sääaseman nimen.

Klikkaa sitten nähdäksesi säähavainnot ja -ennusteet.

Kartan vaihtaminen: klikkaa mustalla rastilla varustettuja vihreitä pisteitä, niin voit zoomata sisään; viivalla varustettua vihreää pistettä, niin voit zoomata ulos tai vihreitä nuolia, niin pääset viereisille kartoille.


METAR-TAF: